Oban — PDWJ — position and weather

sailwx.info

Track history (hours):
 
Tides and Currents Weather Stations Pressure Air Temp Water Temp Dewpoint Dewpoint Depression Visibility Wind Speed Wind Dir Waves Ship Positions

Oban

Last reported at 2018-Aug-14 07:00 UTC. Time now 2018-Aug-14 07:04 UTC.
Position N 54°45' E 010°40'.

Length 39 m; draft 2.8 m.

Type: Sailing vessel. MMSI: 246085000.

Date/timePositionNaut miles runAvg speedWind from/ knotsBaromVisibWave heightAir tempDewpointWater temp
2018-Aug-14 07:00N 54°45' E 010°40'0 0.0
2018-Aug-14 06:30N 54°45' E 010°40'0 0.0
2018-Aug-14 06:00N 54°45' E 010°40'0 0.0
2018-Aug-14 05:30N 54°45' E 010°40'0 0.0
2018-Aug-14 05:00N 54°45' E 010°40'0 0.0
2018-Aug-14 04:30N 54°45' E 010°40'0 0.0
2018-Aug-14 04:00N 54°45' E 010°40'0 0.0
2018-Aug-14 03:30N 54°45' E 010°40'0 0.0
2018-Aug-14 03:00N 54°45' E 010°40'0 0.0
2018-Aug-14 02:30N 54°45' E 010°40'0 0.0
2018-Aug-14 02:00N 54°45' E 010°40'0 0.0
2018-Aug-14 01:30N 54°45' E 010°40'0 0.0
2018-Aug-14 01:00N 54°45' E 010°40'0 0.0
2018-Aug-14 00:30N 54°45' E 010°40'0 0.0
2018-Aug-14 00:00N 54°45' E 010°40'0 0.0
2018-Aug-13 23:30N 54°45' E 010°40'0 0.0
2018-Aug-13 23:00N 54°45' E 010°40'0 0.0
2018-Aug-13 22:30N 54°45' E 010°40'0 0.0
2018-Aug-13 22:00N 54°45' E 010°40'0 0.0
2018-Aug-13 21:30N 54°45' E 010°40'0 0.0
2018-Aug-13 21:00N 54°45' E 010°40'0 0.0
2018-Aug-13 20:30N 54°45' E 010°40'0 0.0
2018-Aug-13 20:00N 54°45' E 010°40'0 0.0
2018-Aug-13 19:30N 54°45' E 010°40'0 0.0
2018-Aug-13 19:00N 54°45' E 010°40'2 4.2
2018-Aug-13 18:30N 54°43' E 010°40'3 6.2
2018-Aug-13 18:00N 54°42' E 010°46'4 7.4
2018-Aug-13 17:30N 54°42' E 010°52'4 7.8
2018-Aug-13 17:00N 54°41' E 010°58'3 6.4
2018-Aug-13 16:30N 54°38' E 011°02'3 6.9
2018-Aug-13 16:00N 54°36' E 011°06'4 7.4
2018-Aug-13 15:30N 54°34' E 011°12'4 8.2
2018-Aug-13 15:00N 54°32' E 011°18'4 7.8
2018-Aug-13 14:30N 54°30' E 011°24'4 7.7
2018-Aug-13 14:00N 54°28' E 011°29'4 7.6
2018-Aug-13 13:30N 54°26' E 011°35'3 6.8
2018-Aug-13 13:00N 54°24' E 011°40'3 6.8
2018-Aug-13 12:30N 54°22' E 011°45'3 6.9
2018-Aug-13 12:00N 54°20' E 011°49'3 6.3
2018-Aug-13 11:30N 54°18' E 011°53'3 5.4
2018-Aug-13 11:00N 54°16' E 011°57'3 5.3
2018-Aug-13 10:30N 54°15' E 012°00'3 6.0
2018-Aug-13 10:00N 54°13' E 012°04'2 4.3
2018-Aug-13 09:30N 54°11' E 012°06'4 6.6
2018-Aug-13 08:57N 54°07' E 012°06'2 3.9
2018-Aug-13 08:30N 54°06' E 012°08'0 0.0
2018-Aug-13 08:00N 54°06' E 012°08'0 0.0
2018-Aug-13 07:30N 54°06' E 012°08'0 0.0
2018-Aug-13 07:00N 54°06' E 012°08'0 0.0
2018-Aug-13 06:30N 54°06' E 012°08'0 0.0
2018-Aug-13 06:00N 54°06' E 012°08'0 0.0
2018-Aug-13 05:30N 54°06' E 012°08'0 0.0
2018-Aug-13 05:00N 54°06' E 012°08'0 0.0
2018-Aug-13 04:30N 54°06' E 012°08'0 0.0
2018-Aug-13 04:00N 54°06' E 012°08'0 0.0
2018-Aug-13 03:30N 54°06' E 012°08'0 0.0
2018-Aug-13 02:59N 54°06' E 012°08'0 0.0
2018-Aug-13 02:30N 54°06' E 012°08'0 0.0
2018-Aug-13 02:00N 54°06' E 012°08'0 0.0
2018-Aug-13 01:30N 54°06' E 012°08'0 0.0
2018-Aug-13 01:00N 54°06' E 012°08'0 0.0
2018-Aug-13 00:30N 54°06' E 012°08'0 0.0
2018-Aug-13 00:00N 54°06' E 012°08'0 0.0
2018-Aug-12 23:28N 54°06' E 012°08'0 0.0
2018-Aug-12 23:00N 54°06' E 012°08'0 0.0
2018-Aug-12 22:30N 54°06' E 012°08'0 0.0
2018-Aug-12 21:58N 54°06' E 012°08'0 0.0
2018-Aug-12 21:23N 54°06' E 012°08'0 0.0
2018-Aug-12 19:59N 54°06' E 012°08'0 0.0
2018-Aug-12 19:30N 54°06' E 012°08'0 0.0
2018-Aug-12 19:00N 54°06' E 012°08'0 0.0
2018-Aug-12 18:30N 54°06' E 012°08'0 0.0
2018-Aug-12 17:54N 54°06' E 012°08'0 0.0
2018-Aug-12 17:23N 54°06' E 012°08'0 0.0
2018-Aug-12 16:59N 54°06' E 012°08'0 0.0
2018-Aug-12 16:08N 54°06' E 012°08'0 0.0
2018-Aug-12 15:54N 54°06' E 012°08'0 0.0
2018-Aug-12 15:30N 54°06' E 012°08'0 0.0
2018-Aug-12 15:00N 54°06' E 012°08'0 0.0
2018-Aug-12 14:30N 54°06' E 012°08'0 0.3
2018-Aug-12 13:44N 54°06' E 012°07'1 4.8
2018-Aug-12 13:30N 54°07' E 012°06'2 3.9
2018-Aug-12 12:58N 54°09' E 012°06'2 3.7
2018-Aug-12 12:30N 54°10' E 012°06'3 5.0
2018-Aug-12 11:53N 54°13' E 012°04'3 6.8
2018-Aug-12 11:30N 54°16' E 012°02'0 0.7
2018-Aug-12 10:57N 54°15' E 012°02'2 4.6
2018-Aug-12 10:30N 54°13' E 012°03'2 3.8
2018-Aug-12 10:00N 54°12' E 012°05'2 4.8
2018-Aug-12 09:30N 54°09' E 012°06'2 4.0
2018-Aug-12 09:00N 54°07' E 012°06'2 3.3
2018-Aug-12 08:30N 54°06' E 012°07'1 0.9
2018-Aug-12 07:55N 54°06' E 012°08'0 0.0
2018-Aug-12 07:30N 54°06' E 012°08'0 0.0
2018-Aug-12 07:00N 54°06' E 012°08'0 0.0
2018-Aug-12 06:28N 54°06' E 012°08'0 0.0
2018-Aug-12 05:52N 54°06' E 012°08'0 0.0
2018-Aug-12 05:30N 54°06' E 012°08'0 0.0
2018-Aug-12 05:00N 54°06' E 012°08'0 0.0
2018-Aug-12 04:30N 54°06' E 012°08'0 0.0
2018-Aug-12 03:55N 54°06' E 012°08'0 0.0
2018-Aug-12 03:30N 54°06' E 012°08'0 0.0
2018-Aug-12 02:00N 54°06' E 012°08'0 0.0
2018-Aug-12 01:30N 54°06' E 012°08'0 0.0
2018-Aug-12 01:00N 54°06' E 012°08'0 0.0
2018-Aug-12 00:30N 54°06' E 012°08'0 0.0
2018-Aug-12 00:00N 54°06' E 012°08'0 0.0
2018-Aug-11 23:30N 54°06' E 012°08'0 0.0
2018-Aug-11 22:14N 54°06' E 012°08'0 0.0
2018-Aug-11 21:59N 54°06' E 012°08'0 0.0
2018-Aug-11 21:30N 54°06' E 012°08'0 0.0
2018-Aug-11 21:00N 54°06' E 012°08'0 0.0
2018-Aug-11 20:28N 54°06' E 012°08'0 0.0
2018-Aug-11 20:00N 54°06' E 012°08'1 2.1
2018-Aug-11 19:30N 54°06' E 012°06'2 4.5
2018-Aug-11 18:59N 54°09' E 012°06'0 0.6
2018-Aug-11 18:25N 54°08' E 012°06'2 4.1
2018-Aug-11 18:00N 54°07' E 012°06'1 2.8
2018-Aug-11 17:30N 54°06' E 012°08'0 0.0
2018-Aug-11 16:59N 54°06' E 012°08'0 0.0
2018-Aug-11 16:30N 54°06' E 012°08'0 0.0
2018-Aug-11 15:15N 54°06' E 012°08'0 0.0
2018-Aug-11 15:00N 54°06' E 012°08'0 0.0
2018-Aug-11 14:30N 54°06' E 012°08'0 0.0
2018-Aug-11 13:50N 54°06' E 012°08'0 0.5
2018-Aug-11 13:20N 54°06' E 012°08'1 3.3
2018-Aug-11 12:57N 54°06' E 012°06'2 3.4
2018-Aug-11 12:29N 54°08' E 012°06'2 3.3
2018-Aug-11 12:00N 54°09' E 012°06'0 0.4
2018-Aug-11 11:30N 54°10' E 012°06'2 2.7
2018-Aug-11 10:52N 54°11' E 012°05'2 4.4
2018-Aug-11 10:30N 54°13' E 012°03'2 4.7
2018-Aug-11 10:00N 54°11' E 012°06'2 3.2
2018-Aug-11 09:28N 54°09' E 012°06'2 3.7
2018-Aug-11 08:50N 54°07' E 012°06'1 3.4
2018-Aug-11 08:29N 54°06' E 012°07'0 0.6
2018-Aug-11 07:55N 54°06' E 012°08'0 0.0
2018-Aug-11 07:26N 54°06' E 012°08'0 0.0
2018-Aug-11 07:00N 54°06' E 012°08'0 0.0
2018-Aug-11 06:30N 54°06' E 012°08'0 0.0
2018-Aug-11 05:59N 54°06' E 012°08'0 0.0
2018-Aug-11 05:29N 54°06' E 012°08'0 0.0
2018-Aug-11 04:54N 54°06' E 012°08'0 0.0
2018-Aug-11 03:06N 54°06' E 012°08'0 0.0
2018-Aug-11 02:55N 54°06' E 012°08'0 0.0
2018-Aug-11 02:28N 54°06' E 012°08'0 0.0
2018-Aug-11 02:00N 54°06' E 012°08'0 0.0
2018-Aug-11 01:29N 54°06' E 012°08'0 0.0
2018-Aug-11 00:45N 54°06' E 012°08'0 0.0
2018-Aug-11 00:30N 54°06' E 012°08'0 0.0
2018-Aug-11 00:00N 54°06' E 012°08'0 0.0
2018-Aug-10 23:30N 54°06' E 012°08'0 0.0
2018-Aug-10 23:00N 54°06' E 012°08'0 0.0
2018-Aug-10 22:29N 54°06' E 012°08'0 0.0
2018-Aug-10 21:58N 54°06' E 012°08'0 0.0
2018-Aug-10 21:28N 54°06' E 012°08'0 0.1
2018-Aug-10 20:58N 54°06' E 012°08'2 3.6
2018-Aug-10 20:18N 54°08' E 012°06'1 4.3
2018-Aug-10 19:59N 54°09' E 012°06'2 3.8
2018-Aug-10 19:29N 54°11' E 012°05'1 1.4
2018-Aug-10 18:49N 54°10' E 012°06'1 4.4
2018-Aug-10 18:30N 54°09' E 012°06'3 3.6
2018-Aug-10 17:46N 54°06' E 012°06'1 2.3
2018-Aug-10 17:23N 54°06' E 012°08'0 0.0
2018-Aug-10 17:00N 54°06' E 012°08'0 0.0
2018-Aug-10 16:26N 54°06' E 012°08'0 0.0
2018-Aug-10 15:57N 54°06' E 012°08'0 0.0
2018-Aug-10 15:29N 54°06' E 012°08'0 0.0
2018-Aug-10 14:57N 54°06' E 012°08'0 0.0
2018-Aug-10 14:23N 54°06' E 012°08'0 0.1
2018-Aug-10 13:54N 54°06' E 012°08'2 4.5
2018-Aug-10 13:29N 54°07' E 012°06'2 4.2
2018-Aug-10 13:00N 54°09' E 012°06'1 2.3
2018-Aug-10 12:30N 54°10' E 012°06'1 2.8
2018-Aug-10 12:00N 54°09' E 012°06'2 3.1
2018-Aug-10 11:30N 54°10' E 012°06'3 2.2
2018-Aug-10 10:15N 54°08' E 012°06'1 4.2
2018-Aug-10 10:00N 54°07' E 012°06'1 2.7
2018-Aug-10 09:30N 54°06' E 012°08'0 0.0
2018-Aug-10 09:00N 54°06' E 012°08'0 0.0
2018-Aug-10 08:30N 54°06' E 012°08'0 0.0
2018-Aug-10 08:00N 54°06' E 012°08'0 0.0
2018-Aug-10 07:30N 54°06' E 012°08'0 0.0
2018-Aug-10 06:58N 54°06' E 012°08'0 0.0
2018-Aug-10 06:25N 54°06' E 012°08'0 0.0
2018-Aug-10 05:58N 54°06' E 012°08'0 0.0
2018-Aug-10 04:00N 54°06' E 012°08'0 0.0
2018-Aug-10 03:30N 54°06' E 012°08'0 0.0
2018-Aug-10 03:00N 54°06' E 012°08'0 0.0
2018-Aug-10 02:19N 54°06' E 012°08'0 0.0
2018-Aug-10 01:43N 54°06' E 012°08'0 0.0
2018-Aug-10 01:30N 54°06' E 012°08'0 0.0
2018-Aug-10 00:59N 54°06' E 012°08'0 0.0
2018-Aug-10 00:29N 54°06' E 012°08'0 0.0
2018-Aug-10 00:00N 54°06' E 012°08'0 0.0
2018-Aug-09 23:30N 54°06' E 012°08'0 0.0
2018-Aug-09 23:00N 54°06' E 012°08'0 0.0
2018-Aug-09 22:30N 54°06' E 012°08'0 0.0
2018-Aug-09 22:00N 54°06' E 012°08'0 0.0
2018-Aug-09 21:28N 54°06' E 012°08'0 0.0
2018-Aug-09 21:00N 54°06' E 012°08'0 0.0
2018-Aug-09 20:08N 54°06' E 012°08'0 0.1
2018-Aug-09 19:44N 54°06' E 012°08'1 5.2
2018-Aug-09 19:30N 54°06' E 012°06'3 6.7
2018-Aug-09 19:00N 54°10' E 012°06'0 0.9
2018-Aug-09 18:30N 54°10' E 012°06'3 4.7
2018-Aug-09 17:53N 54°07' E 012°06'1 2.8
2018-Aug-09 17:30N 54°06' E 012°06'1 2.1
2018-Aug-09 16:59N 54°06' E 012°08'0 0.0
2018-Aug-09 16:14N 54°06' E 012°08'0 0.0
2018-Aug-09 15:55N 54°06' E 012°08'1 1.0
2018-Aug-09 14:43N 54°06' E 012°06'1 6.2
2018-Aug-09 14:30N 54°08' E 012°06'2 4.6
2018-Aug-09 14:00N 54°10' E 012°06'3 5.5
2018-Aug-09 13:30N 54°12' E 012°03'7 5.2
2018-Aug-09 12:09N 54°06' E 012°07'0 1.8
2018-Aug-09 12:00N 54°06' E 012°08'0 0.0
2018-Aug-09 11:30N 54°06' E 012°08'0 0.0
2018-Aug-09 11:00N 54°06' E 012°08'0 0.0
2018-Aug-09 10:30N 54°06' E 012°08'0 0.0
2018-Aug-09 09:52N 54°06' E 012°08'0 0.0
2018-Aug-09 09:21N 54°06' E 012°08'0 0.0
2018-Aug-09 08:56N 54°06' E 012°08'0 0.0
2018-Aug-09 08:30N 54°06' E 012°08'0 0.0
2018-Aug-09 07:54N 54°06' E 012°08'0 0.0
2018-Aug-09 07:25N 54°06' E 012°08'0 0.0
2018-Aug-09 06:59N 54°06' E 012°08'0 0.0
2018-Aug-09 06:30N 54°06' E 012°08'0 0.0
2018-Aug-09 05:48N 54°06' E 012°08'0 0.0
2018-Aug-09 05:23N 54°06' E 012°08'0 0.0
2018-Aug-09 04:54N 54°06' E 012°08'0 0.0
2018-Aug-09 04:28N 54°06' E 012°08'0 0.0
2018-Aug-09 03:46N 54°06' E 012°08'0 0.0
2018-Aug-09 03:30N 54°06' E 012°08'0 0.0
2018-Aug-09 02:52N 54°06' E 012°08'0 0.0
2018-Aug-09 02:30N 54°06' E 012°08'0 0.0
2018-Aug-09 01:59N 54°06' E 012°08'0 0.0
2018-Aug-09 01:28N 54°06' E 012°08'0 0.0
2018-Aug-09 00:57N 54°06' E 012°08'0 0.0
2018-Aug-09 00:30N 54°06' E 012°08'0 0.0
2018-Aug-08 23:13N 54°06' E 012°08'0 0.0
2018-Aug-08 22:59N 54°06' E 012°08'0 0.0
2018-Aug-08 22:30N 54°06' E 012°08'0 0.0
2018-Aug-08 21:59N 54°06' E 012°08'0 0.0
2018-Aug-08 20:30N 54°06' E 012°08'0 0.0
2018-Aug-08 20:00N 54°06' E 012°08'0 0.0
2018-Aug-08 19:27N 54°06' E 012°08'0 0.0
2018-Aug-08 18:58N 54°06' E 012°08'0 0.0
2018-Aug-08 18:30N 54°06' E 012°08'0 0.0
2018-Aug-08 18:00N 54°06' E 012°08'0 0.0
2018-Aug-08 17:30N 54°06' E 012°08'0 0.0
2018-Aug-08 16:49N 54°06' E 012°08'0 0.0
2018-Aug-08 16:15N 54°06' E 012°08'0 0.0
2018-Aug-08 16:00N 54°06' E 012°08'0 0.0
2018-Aug-08 15:30N 54°06' E 012°08'0 0.0
2018-Aug-08 15:00N 54°06' E 012°08'0 0.0
2018-Aug-08 14:29N 54°06' E 012°08'0 0.0
2018-Aug-08 13:56N 54°06' E 012°08'0 0.0
2018-Aug-08 13:30N 54°06' E 012°08'0 0.0
2018-Aug-08 12:59N 54°06' E 012°08'0 0.0
2018-Aug-08 12:20N 54°06' E 012°08'0 0.0
2018-Aug-08 12:00N 54°06' E 012°08'0 0.0
2018-Aug-08 11:28N 54°06' E 012°08'0 0.0
2018-Aug-08 10:49N 54°06' E 012°08'0 0.0
2018-Aug-08 10:30N 54°06' E 012°08'0 0.0
2018-Aug-08 09:59N 54°06' E 012°08'0 0.0
2018-Aug-08 09:30N 54°06' E 012°08'0 0.0
2018-Aug-08 08:26N 54°06' E 012°08'1 1.8
2018-Aug-08 08:00N 54°06' E 012°07'3 5.9
2018-Aug-08 07:30N 54°09' E 012°06'3 5.2
2018-Aug-08 07:00N 54°12' E 012°06'0 0.5
2018-Aug-08 06:23N 54°11' E 012°07'0 0.0
2018-Aug-08 03:52N 54°11' E 012°07'0 0.0
2018-Aug-08 03:10N 54°11' E 012°07'0 0.0
2018-Aug-08 02:58N 54°11' E 012°07'0 0.0
2018-Aug-08 02:22N 54°11' E 012°07'0 0.0
2018-Aug-08 00:13N 54°11' E 012°07'0 0.0
2018-Aug-07 23:58N 54°11' E 012°07'0 0.0
2018-Aug-07 23:22N 54°11' E 012°07'0 0.0
2018-Aug-07 22:34N 54°11' E 012°07'0 0.0
2018-Aug-07 22:28N 54°11' E 012°07'0 0.0
2018-Aug-07 21:49N 54°11' E 012°07'0 0.0
2018-Aug-07 21:28N 54°11' E 012°07'0 0.0
2018-Aug-07 20:46N 54°11' E 012°07'0 0.0
2018-Aug-07 20:28N 54°11' E 012°07'0 0.0
2018-Aug-07 19:13N 54°11' E 012°07'0 0.0
2018-Aug-07 18:43N 54°11' E 012°07'0 0.0
2018-Aug-07 18:25N 54°11' E 012°07'0 0.0
2018-Aug-07 17:58N 54°11' E 012°07'0 0.0
2018-Aug-07 17:28N 54°11' E 012°07'0 0.0
2018-Aug-07 16:12N 54°11' E 012°07'0 0.0
2018-Aug-07 15:45N 54°11' E 012°07'0 0.0
2018-Aug-07 14:46N 54°11' E 012°07'0 0.2
2018-Aug-07 14:30N 54°11' E 012°07'1 2.6
2018-Aug-07 14:01N 54°12' E 012°05'1 2.3
2018-Aug-07 13:30N 54°13' E 012°04'2 4.1
2018-Aug-07 13:00N 54°15' E 012°02'1 2.2
2018-Aug-07 12:30N 54°16' E 012°00'2 3.2
2018-Aug-07 11:59N 54°15' E 011°58'2 3.7
2018-Aug-07 11:29N 54°13' E 011°56'8 4.1
2018-Aug-07 09:30N 54°10' E 011°43'2 4.7
2018-Aug-07 08:59N 54°09' E 011°39'2 4.5
2018-Aug-07 08:30N 54°07' E 011°37'0 0.4
2018-Aug-07 07:58N 54°07' E 011°37'0 0.0
2018-Aug-07 07:28N 54°07' E 011°37'0 0.0
2018-Aug-07 06:55N 54°07' E 011°37'0 0.0
2018-Aug-07 06:28N 54°07' E 011°37'0 0.0
2018-Aug-07 05:58N 54°07' E 011°37'0 0.0
2018-Aug-07 05:16N 54°07' E 011°37'0 0.0
2018-Aug-07 04:58N 54°07' E 011°37'0 0.0
2018-Aug-07 04:28N 54°07' E 011°37'0 0.0
2018-Aug-07 03:58N 54°07' E 011°37'0 0.0
2018-Aug-07 03:28N 54°07' E 011°37'0 0.0
2018-Aug-07 00:49N 54°07' E 011°37'0 0.0
2018-Aug-07 00:16N 54°07' E 011°37'0 0.0
2018-Aug-06 22:40N 54°07' E 011°37'0 0.0
2018-Aug-06 22:24N 54°07' E 011°37'0 0.0
2018-Aug-06 22:01N 54°07' E 011°37'0 0.0
2018-Aug-06 21:27N 54°07' E 011°37'0 0.0
2018-Aug-06 20:03N 54°07' E 011°37'0 0.0
2018-Aug-06 19:48N 54°07' E 011°37'0 0.0
2018-Aug-06 19:18N 54°07' E 011°37'0 0.0
2018-Aug-06 18:54N 54°07' E 011°37'0 0.0
2018-Aug-06 18:09N 54°07' E 011°37'0 0.0
2018-Aug-06 17:57N 54°07' E 011°37'0 0.0
2018-Aug-06 17:30N 54°07' E 011°37'0 0.0
2018-Aug-06 17:00N 54°07' E 011°37'0 0.0
2018-Aug-06 16:30N 54°07' E 011°37'0 0.0
2018-Aug-06 16:00N 54°07' E 011°37'0 0.0
2018-Aug-06 15:30N 54°07' E 011°37'0 0.0
2018-Aug-06 14:57N 54°07' E 011°37'0 0.0
2018-Aug-06 14:30N 54°07' E 011°37'0 0.0
2018-Aug-06 13:56N 54°07' E 011°37'3 5.4
2018-Aug-06 13:19N 54°06' E 011°31'2 6.5
2018-Aug-06 13:00N 54°04' E 011°29'2 4.2
2018-Aug-06 12:30N 54°03' E 011°27'0 0.4
2018-Aug-06 12:00N 54°03' E 011°27'0 0.4
2018-Aug-06 11:30N 54°03' E 011°26'0 0.4
2018-Aug-06 10:58N 54°03' E 011°26'0 0.2
2018-Aug-06 10:30N 54°03' E 011°26'0 0.8
2018-Aug-06 10:00N 54°03' E 011°26'0 0.9
2018-Aug-06 09:30N 54°02' E 011°25'1 1.4
2018-Aug-06 09:00N 54°02' E 011°24'3 5.9
2018-Aug-06 08:31N 53°60' E 011°21'3 6.3
2018-Aug-06 08:01N 53°57' E 011°24'3 6.5
2018-Aug-06 07:30N 53°54' E 011°27'1 1.5
2018-Aug-06 07:00N 53°54' E 011°27'0 0.0
2018-Aug-06 06:30N 53°54' E 011°27'0 0.0
2018-Aug-06 06:00N 53°54' E 011°27'0 0.0
2018-Aug-06 05:30N 53°54' E 011°27'0 0.0
2018-Aug-06 05:00N 53°54' E 011°27'0 0.0
2018-Aug-06 04:30N 53°54' E 011°27'0 0.0
2018-Aug-06 04:00N 53°54' E 011°27'0 0.0
2018-Aug-06 03:28N 53°54' E 011°27'0 0.0
2018-Aug-06 03:00N 53°54' E 011°27'0 0.0
2018-Aug-06 02:30N 53°54' E 011°27'0 0.0
2018-Aug-06 02:00N 53°54' E 011°27'0 0.0
2018-Aug-06 01:30N 53°54' E 011°27'28 2.4
2018-Aug-05 14:00N 54°22' E 011°19'4 7.9
2018-Aug-05 13:30N 54°25' E 011°19'4 8.6
2018-Aug-05 13:00N 54°30' E 011°17'5 9.1
2018-Aug-05 12:30N 54°34' E 011°14'4 9.0
2018-Aug-05 12:00N 54°38' E 011°10'4 7.3
2018-Aug-05 11:29N 54°38' E 011°03'4 8.6
2018-Aug-05 11:00N 54°37' E 010°56'4 7.6
2018-Aug-05 10:30N 54°36' E 010°50'3 6.0
2018-Aug-05 10:00N 54°37' E 010°45'4 7.6
2018-Aug-05 09:30N 54°40' E 010°41'3 6.7
2018-Aug-05 09:00N 54°43' E 010°38'4 7.3
2018-Aug-05 08:30N 54°46' E 010°36'3 6.9
2018-Aug-05 08:00N 54°49' E 010°33'2 4.9
2018-Aug-05 07:30N 54°51' E 010°32'0 0.3
2018-Aug-05 06:55N 54°51' E 010°31'0 0.0
2018-Aug-05 05:37N 54°51' E 010°31'0 0.0
2018-Aug-05 05:30N 54°51' E 010°31'0 0.0
2018-Aug-05 04:56N 54°51' E 010°31'0 0.0
2018-Aug-05 03:47N 54°51' E 010°31'0 0.0
2018-Aug-05 03:28N 54°51' E 010°31'0 0.0
2018-Aug-05 02:37N 54°51' E 010°31'0 0.0
2018-Aug-05 02:22N 54°51' E 010°31'0 0.0
2018-Aug-05 01:54N 54°51' E 010°31'0 0.0
2018-Aug-05 01:29N 54°51' E 010°31'0 0.0
2018-Aug-05 00:55N 54°51' E 010°31'0 0.0
2018-Aug-05 00:21N 54°51' E 010°31'0 0.0
2018-Aug-04 23:59N 54°51' E 010°31'0 0.0
2018-Aug-04 23:30N 54°51' E 010°31'0 0.0
2018-Aug-04 22:58N 54°51' E 010°31'0 0.0
2018-Aug-04 20:16N 54°51' E 010°31'0 0.0
2018-Aug-04 19:53N 54°51' E 010°31'0 0.0
2018-Aug-04 19:26N 54°51' E 010°31'0 0.0
2018-Aug-04 18:49N 54°51' E 010°31'0 0.0
2018-Aug-04 16:15N 54°51' E 010°31'0 0.0
2018-Aug-04 15:57N 54°51' E 010°31'0 0.0
2018-Aug-04 14:48N 54°51' E 010°31'1 2.0
2018-Aug-04 14:30N 54°51' E 010°32'2 4.0
2018-Aug-04 14:00N 54°49' E 010°33'2 4.2
2018-Aug-04 13:29N 54°47' E 010°31'2 4.2
2018-Aug-04 12:59N 54°45' E 010°31'2 3.7
2018-Aug-04 12:30N 54°43' E 010°30'3 5.0
2018-Aug-04 12:00N 54°41' E 010°28'3 5.9
2018-Aug-04 11:30N 54°39' E 010°25'3 6.1
2018-Aug-04 11:00N 54°36' E 010°22'3 6.0
2018-Aug-04 10:29N 54°33' E 010°20'5 4.3
2018-Aug-04 09:13N 54°29' E 010°14'2 6.1
2018-Aug-04 08:53N 54°27' E 010°13'  
Track history (hours):
 
Tides and Currents Weather Stations Pressure Air Temp Water Temp Dewpoint Dewpoint Depression Visibility Wind Speed Wind Dir Waves Ship Positions

Oban

Last reported at 2018-Aug-14 07:00 UTC. Time now 2018-Aug-14 07:04 UTC.
Position N 54°45' E 010°40'.

Length 39 m; draft 2.8 m.

Type: Sailing vessel. MMSI: 246085000.

Date/timePositionNaut miles runAvg speedWind from/ knotsBaromVisibWave heightAir tempDewpointWater temp
2018-Aug-14 07:00N 54°45' E 010°40'0 0.0
2018-Aug-14 06:30N 54°45' E 010°40'0 0.0
2018-Aug-14 06:00N 54°45' E 010°40'0 0.0
2018-Aug-14 05:30N 54°45' E 010°40'0 0.0
2018-Aug-14 05:00N 54°45' E 010°40'0 0.0
2018-Aug-14 04:30N 54°45' E 010°40'0 0.0
2018-Aug-14 04:00N 54°45' E 010°40'0 0.0
2018-Aug-14 03:30N 54°45' E 010°40'0 0.0
2018-Aug-14 03:00N 54°45' E 010°40'0 0.0
2018-Aug-14 02:30N 54°45' E 010°40'0 0.0
2018-Aug-14 02:00N 54°45' E 010°40'0 0.0
2018-Aug-14 01:30N 54°45' E 010°40'0 0.0
2018-Aug-14 01:00N 54°45' E 010°40'0 0.0
2018-Aug-14 00:30N 54°45' E 010°40'0 0.0
2018-Aug-14 00:00N 54°45' E 010°40'0 0.0
2018-Aug-13 23:30N 54°45' E 010°40'0 0.0
2018-Aug-13 23:00N 54°45' E 010°40'0 0.0
2018-Aug-13 22:30N 54°45' E 010°40'0 0.0
2018-Aug-13 22:00N 54°45' E 010°40'0 0.0
2018-Aug-13 21:30N 54°45' E 010°40'0 0.0
2018-Aug-13 21:00N 54°45' E 010°40'0 0.0
2018-Aug-13 20:30N 54°45' E 010°40'0 0.0
2018-Aug-13 20:00N 54°45' E 010°40'0 0.0
2018-Aug-13 19:30N 54°45' E 010°40'0 0.0
2018-Aug-13 19:00N 54°45' E 010°40'2 4.2
2018-Aug-13 18:30N 54°43' E 010°40'3 6.2
2018-Aug-13 18:00N 54°42' E 010°46'4 7.4
2018-Aug-13 17:30N 54°42' E 010°52'4 7.8
2018-Aug-13 17:00N 54°41' E 010°58'3 6.4
2018-Aug-13 16:30N 54°38' E 011°02'3 6.9
2018-Aug-13 16:00N 54°36' E 011°06'4 7.4
2018-Aug-13 15:30N 54°34' E 011°12'4 8.2
2018-Aug-13 15:00N 54°32' E 011°18'4 7.8
2018-Aug-13 14:30N 54°30' E 011°24'4 7.7
2018-Aug-13 14:00N 54°28' E 011°29'4 7.6
2018-Aug-13 13:30N 54°26' E 011°35'3 6.8
2018-Aug-13 13:00N 54°24' E 011°40'3 6.8
2018-Aug-13 12:30N 54°22' E 011°45'3 6.9
2018-Aug-13 12:00N 54°20' E 011°49'3 6.3
2018-Aug-13 11:30N 54°18' E 011°53'3 5.4
2018-Aug-13 11:00N 54°16' E 011°57'3 5.3
2018-Aug-13 10:30N 54°15' E 012°00'3 6.0
2018-Aug-13 10:00N 54°13' E 012°04'2 4.3
2018-Aug-13 09:30N 54°11' E 012°06'4 6.6
2018-Aug-13 08:57N 54°07' E 012°06'2 3.9
2018-Aug-13 08:30N 54°06' E 012°08'0 0.0
2018-Aug-13 08:00N 54°06' E 012°08'0 0.0
2018-Aug-13 07:30N 54°06' E 012°08'0 0.0
2018-Aug-13 07:00N 54°06' E 012°08'0 0.0
2018-Aug-13 06:30N 54°06' E 012°08'0 0.0
2018-Aug-13 06:00N 54°06' E 012°08'0 0.0
2018-Aug-13 05:30N 54°06' E 012°08'0 0.0
2018-Aug-13 05:00N 54°06' E 012°08'0 0.0
2018-Aug-13 04:30N 54°06' E 012°08'0 0.0
2018-Aug-13 04:00N 54°06' E 012°08'0 0.0
2018-Aug-13 03:30N 54°06' E 012°08'0 0.0
2018-Aug-13 02:59N 54°06' E 012°08'0 0.0
2018-Aug-13 02:30N 54°06' E 012°08'0 0.0
2018-Aug-13 02:00N 54°06' E 012°08'0 0.0
2018-Aug-13 01:30N 54°06' E 012°08'0 0.0
2018-Aug-13 01:00N 54°06' E 012°08'0 0.0
2018-Aug-13 00:30N 54°06' E 012°08'0 0.0
2018-Aug-13 00:00N 54°06' E 012°08'0 0.0
2018-Aug-12 23:28N 54°06' E 012°08'0 0.0
2018-Aug-12 23:00N 54°06' E 012°08'0 0.0
2018-Aug-12 22:30N 54°06' E 012°08'0 0.0
2018-Aug-12 21:58N 54°06' E 012°08'0 0.0
2018-Aug-12 21:23N 54°06' E 012°08'0 0.0
2018-Aug-12 19:59N 54°06' E 012°08'0 0.0
2018-Aug-12 19:30N 54°06' E 012°08'0 0.0
2018-Aug-12 19:00N 54°06' E 012°08'0 0.0
2018-Aug-12 18:30N 54°06' E 012°08'0 0.0
2018-Aug-12 17:54N 54°06' E 012°08'0 0.0
2018-Aug-12 17:23N 54°06' E 012°08'0 0.0
2018-Aug-12 16:59N 54°06' E 012°08'0 0.0
2018-Aug-12 16:08N 54°06' E 012°08'0 0.0
2018-Aug-12 15:54N 54°06' E 012°08'0 0.0
2018-Aug-12 15:30N 54°06' E 012°08'0 0.0
2018-Aug-12 15:00N 54°06' E 012°08'0 0.0
2018-Aug-12 14:30N 54°06' E 012°08'0 0.3
2018-Aug-12 13:44N 54°06' E 012°07'1 4.8
2018-Aug-12 13:30N 54°07' E 012°06'2 3.9
2018-Aug-12 12:58N 54°09' E 012°06'2 3.7
2018-Aug-12 12:30N 54°10' E 012°06'3 5.0
2018-Aug-12 11:53N 54°13' E 012°04'3 6.8
2018-Aug-12 11:30N 54°16' E 012°02'0 0.7
2018-Aug-12 10:57N 54°15' E 012°02'2 4.6
2018-Aug-12 10:30N 54°13' E 012°03'2 3.8
2018-Aug-12 10:00N 54°12' E 012°05'2 4.8
2018-Aug-12 09:30N 54°09' E 012°06'2 4.0
2018-Aug-12 09:00N 54°07' E 012°06'2 3.3
2018-Aug-12 08:30N 54°06' E 012°07'1 0.9
2018-Aug-12 07:55N 54°06' E 012°08'0 0.0
2018-Aug-12 07:30N 54°06' E 012°08'0 0.0
2018-Aug-12 07:00N 54°06' E 012°08'0 0.0
2018-Aug-12 06:28N 54°06' E 012°08'0 0.0
2018-Aug-12 05:52N 54°06' E 012°08'0 0.0
2018-Aug-12 05:30N 54°06' E 012°08'0 0.0
2018-Aug-12 05:00N 54°06' E 012°08'0 0.0
2018-Aug-12 04:30N 54°06' E 012°08'0 0.0
2018-Aug-12 03:55N 54°06' E 012°08'0 0.0
2018-Aug-12 03:30N 54°06' E 012°08'0 0.0
2018-Aug-12 02:00N 54°06' E 012°08'0 0.0
2018-Aug-12 01:30N 54°06' E 012°08'0 0.0
2018-Aug-12 01:00N 54°06' E 012°08'0 0.0
2018-Aug-12 00:30N 54°06' E 012°08'0 0.0
2018-Aug-12 00:00N 54°06' E 012°08'0 0.0
2018-Aug-11 23:30N 54°06' E 012°08'0 0.0
2018-Aug-11 22:14N 54°06' E 012°08'0 0.0
2018-Aug-11 21:59N 54°06' E 012°08'0 0.0
2018-Aug-11 21:30N 54°06' E 012°08'0 0.0
2018-Aug-11 21:00N 54°06' E 012°08'0 0.0
2018-Aug-11 20:28N 54°06' E 012°08'0 0.0
2018-Aug-11 20:00N 54°06' E 012°08'1 2.1
2018-Aug-11 19:30N 54°06' E 012°06'2 4.5
2018-Aug-11 18:59N 54°09' E 012°06'0 0.6
2018-Aug-11 18:25N 54°08' E 012°06'2 4.1
2018-Aug-11 18:00N 54°07' E 012°06'1 2.8
2018-Aug-11 17:30N 54°06' E 012°08'0 0.0
2018-Aug-11 16:59N 54°06' E 012°08'0 0.0
2018-Aug-11 16:30N 54°06' E 012°08'0 0.0
2018-Aug-11 15:15N 54°06' E 012°08'0 0.0
2018-Aug-11 15:00N 54°06' E 012°08'0 0.0
2018-Aug-11 14:30N 54°06' E 012°08'0 0.0
2018-Aug-11 13:50N 54°06' E 012°08'0 0.5
2018-Aug-11 13:20N 54°06' E 012°08'1 3.3
2018-Aug-11 12:57N 54°06' E 012°06'2 3.4
2018-Aug-11 12:29N 54°08' E 012°06'2 3.3
2018-Aug-11 12:00N 54°09' E 012°06'0 0.4
2018-Aug-11 11:30N 54°10' E 012°06'2 2.7
2018-Aug-11 10:52N 54°11' E 012°05'2 4.4
2018-Aug-11 10:30N 54°13' E 012°03'2 4.7
2018-Aug-11 10:00N 54°11' E 012°06'2 3.2
2018-Aug-11 09:28N 54°09' E 012°06'2 3.7
2018-Aug-11 08:50N 54°07' E 012°06'1 3.4
2018-Aug-11 08:29N 54°06' E 012°07'0 0.6
2018-Aug-11 07:55N 54°06' E 012°08'0 0.0
2018-Aug-11 07:26N 54°06' E 012°08'0 0.0
2018-Aug-11 07:00N 54°06' E 012°08'0 0.0
2018-Aug-11 06:30N 54°06' E 012°08'0 0.0
2018-Aug-11 05:59N 54°06' E 012°08'0 0.0
2018-Aug-11 05:29N 54°06' E 012°08'0 0.0
2018-Aug-11 04:54N 54°06' E 012°08'0 0.0
2018-Aug-11 03:06N 54°06' E 012°08'0 0.0
2018-Aug-11 02:55N 54°06' E 012°08'0 0.0
2018-Aug-11 02:28N 54°06' E 012°08'0 0.0
2018-Aug-11 02:00N 54°06' E 012°08'0 0.0
2018-Aug-11 01:29N 54°06' E 012°08'0 0.0
2018-Aug-11 00:45N 54°06' E 012°08'0 0.0
2018-Aug-11 00:30N 54°06' E 012°08'0 0.0
2018-Aug-11 00:00N 54°06' E 012°08'0 0.0
2018-Aug-10 23:30N 54°06' E 012°08'0 0.0
2018-Aug-10 23:00N 54°06' E 012°08'0 0.0
2018-Aug-10 22:29N 54°06' E 012°08'0 0.0
2018-Aug-10 21:58N 54°06' E 012°08'0 0.0
2018-Aug-10 21:28N 54°06' E 012°08'0 0.1
2018-Aug-10 20:58N 54°06' E 012°08'2 3.6
2018-Aug-10 20:18N 54°08' E 012°06'1 4.3
2018-Aug-10 19:59N 54°09' E 012°06'2 3.8
2018-Aug-10 19:29N 54°11' E 012°05'1 1.4
2018-Aug-10 18:49N 54°10' E 012°06'1 4.4
2018-Aug-10 18:30N 54°09' E 012°06'3 3.6
2018-Aug-10 17:46N 54°06' E 012°06'1 2.3
2018-Aug-10 17:23N 54°06' E 012°08'0 0.0
2018-Aug-10 17:00N 54°06' E 012°08'0 0.0
2018-Aug-10 16:26N 54°06' E 012°08'0 0.0
2018-Aug-10 15:57N 54°06' E 012°08'0 0.0
2018-Aug-10 15:29N 54°06' E 012°08'0 0.0
2018-Aug-10 14:57N 54°06' E 012°08'0 0.0
2018-Aug-10 14:23N 54°06' E 012°08'0 0.1
2018-Aug-10 13:54N 54°06' E 012°08'2 4.5
2018-Aug-10 13:29N 54°07' E 012°06'2 4.2
2018-Aug-10 13:00N 54°09' E 012°06'1 2.3
2018-Aug-10 12:30N 54°10' E 012°06'1 2.8
2018-Aug-10 12:00N 54°09' E 012°06'2 3.1
2018-Aug-10 11:30N 54°10' E 012°06'3 2.2
2018-Aug-10 10:15N 54°08' E 012°06'1 4.2
2018-Aug-10 10:00N 54°07' E 012°06'1 2.7
2018-Aug-10 09:30N 54°06' E 012°08'0 0.0
2018-Aug-10 09:00N 54°06' E 012°08'0 0.0
2018-Aug-10 08:30N 54°06' E 012°08'0 0.0
2018-Aug-10 08:00N 54°06' E 012°08'0 0.0
2018-Aug-10 07:30N 54°06' E 012°08'0 0.0
2018-Aug-10 06:58N 54°06' E 012°08'0 0.0
2018-Aug-10 06:25N 54°06' E 012°08'0 0.0
2018-Aug-10 05:58N 54°06' E 012°08'0 0.0
2018-Aug-10 04:00N 54°06' E 012°08'0 0.0
2018-Aug-10 03:30N 54°06' E 012°08'0 0.0
2018-Aug-10 03:00N 54°06' E 012°08'0 0.0
2018-Aug-10 02:19N 54°06' E 012°08'0 0.0
2018-Aug-10 01:43N 54°06' E 012°08'0 0.0
2018-Aug-10 01:30N 54°06' E 012°08'0 0.0
2018-Aug-10 00:59N 54°06' E 012°08'0 0.0
2018-Aug-10 00:29N 54°06' E 012°08'0 0.0
2018-Aug-10 00:00N 54°06' E 012°08'0 0.0
2018-Aug-09 23:30N 54°06' E 012°08'0 0.0
2018-Aug-09 23:00N 54°06' E 012°08'0 0.0
2018-Aug-09 22:30N 54°06' E 012°08'0 0.0
2018-Aug-09 22:00N 54°06' E 012°08'0 0.0
2018-Aug-09 21:28N 54°06' E 012°08'0 0.0
2018-Aug-09 21:00N 54°06' E 012°08'0 0.0
2018-Aug-09 20:08N 54°06' E 012°08'0 0.1
2018-Aug-09 19:44N 54°06' E 012°08'1 5.2
2018-Aug-09 19:30N 54°06' E 012°06'3 6.7
2018-Aug-09 19:00N 54°10' E 012°06'0 0.9
2018-Aug-09 18:30N 54°10' E 012°06'3 4.7
2018-Aug-09 17:53N 54°07' E 012°06'1 2.8
2018-Aug-09 17:30N 54°06' E 012°06'1 2.1
2018-Aug-09 16:59N 54°06' E 012°08'0 0.0
2018-Aug-09 16:14N 54°06' E 012°08'0 0.0
2018-Aug-09 15:55N 54°06' E 012°08'1 1.0
2018-Aug-09 14:43N 54°06' E 012°06'1 6.2
2018-Aug-09 14:30N 54°08' E 012°06'2 4.6
2018-Aug-09 14:00N 54°10' E 012°06'3 5.5
2018-Aug-09 13:30N 54°12' E 012°03'7 5.2
2018-Aug-09 12:09N 54°06' E 012°07'0 1.8
2018-Aug-09 12:00N 54°06' E 012°08'0 0.0
2018-Aug-09 11:30N 54°06' E 012°08'0 0.0
2018-Aug-09 11:00N 54°06' E 012°08'0 0.0
2018-Aug-09 10:30N 54°06' E 012°08'0 0.0
2018-Aug-09 09:52N 54°06' E 012°08'0 0.0
2018-Aug-09 09:21N 54°06' E 012°08'0 0.0
2018-Aug-09 08:56N 54°06' E 012°08'0 0.0
2018-Aug-09 08:30N 54°06' E 012°08'0 0.0
2018-Aug-09 07:54N 54°06' E 012°08'0 0.0
2018-Aug-09 07:25N 54°06' E 012°08'0 0.0
2018-Aug-09 06:59N 54°06' E 012°08'0 0.0
2018-Aug-09 06:30N 54°06' E 012°08'0 0.0
2018-Aug-09 05:48N 54°06' E 012°08'0 0.0
2018-Aug-09 05:23N 54°06' E 012°08'0 0.0
2018-Aug-09 04:54N 54°06' E 012°08'0 0.0
2018-Aug-09 04:28N 54°06' E 012°08'0 0.0
2018-Aug-09 03:46N 54°06' E 012°08'0 0.0
2018-Aug-09 03:30N 54°06' E 012°08'0 0.0
2018-Aug-09 02:52N 54°06' E 012°08'0 0.0
2018-Aug-09 02:30N 54°06' E 012°08'0 0.0
2018-Aug-09 01:59N 54°06' E 012°08'0 0.0
2018-Aug-09 01:28N 54°06' E 012°08'0 0.0
2018-Aug-09 00:57N 54°06' E 012°08'0 0.0
2018-Aug-09 00:30N 54°06' E 012°08'0 0.0
2018-Aug-08 23:13N 54°06' E 012°08'0 0.0
2018-Aug-08 22:59N 54°06' E 012°08'0 0.0
2018-Aug-08 22:30N 54°06' E 012°08'0 0.0
2018-Aug-08 21:59N 54°06' E 012°08'0 0.0
2018-Aug-08 20:30N 54°06' E 012°08'0 0.0
2018-Aug-08 20:00N 54°06' E 012°08'0 0.0
2018-Aug-08 19:27N 54°06' E 012°08'0 0.0
2018-Aug-08 18:58N 54°06' E 012°08'0 0.0
2018-Aug-08 18:30N 54°06' E 012°08'0 0.0
2018-Aug-08 18:00N 54°06' E 012°08'0 0.0
2018-Aug-08 17:30N 54°06' E 012°08'0 0.0
2018-Aug-08 16:49N 54°06' E 012°08'0 0.0
2018-Aug-08 16:15N 54°06' E 012°08'0 0.0
2018-Aug-08 16:00N 54°06' E 012°08'0 0.0
2018-Aug-08 15:30N 54°06' E 012°08'0 0.0
2018-Aug-08 15:00N 54°06' E 012°08'0 0.0
2018-Aug-08 14:29N 54°06' E 012°08'0 0.0
2018-Aug-08 13:56N 54°06' E 012°08'0 0.0
2018-Aug-08 13:30N 54°06' E 012°08'0 0.0
2018-Aug-08 12:59N 54°06' E 012°08'0 0.0
2018-Aug-08 12:20N 54°06' E 012°08'0 0.0
2018-Aug-08 12:00N 54°06' E 012°08'0 0.0
2018-Aug-08 11:28N 54°06' E 012°08'0 0.0
2018-Aug-08 10:49N 54°06' E 012°08'0 0.0
2018-Aug-08 10:30N 54°06' E 012°08'0 0.0
2018-Aug-08 09:59N 54°06' E 012°08'0 0.0
2018-Aug-08 09:30N 54°06' E 012°08'0 0.0
2018-Aug-08 08:26N 54°06' E 012°08'1 1.8
2018-Aug-08 08:00N 54°06' E 012°07'3 5.9
2018-Aug-08 07:30N 54°09' E 012°06'3 5.2
2018-Aug-08 07:00N 54°12' E 012°06'0 0.5
2018-Aug-08 06:23N 54°11' E 012°07'0 0.0
2018-Aug-08 03:52N 54°11' E 012°07'0 0.0
2018-Aug-08 03:10N 54°11' E 012°07'0 0.0
2018-Aug-08 02:58N 54°11' E 012°07'0 0.0
2018-Aug-08 02:22N 54°11' E 012°07'0 0.0
2018-Aug-08 00:13N 54°11' E 012°07'0 0.0
2018-Aug-07 23:58N 54°11' E 012°07'0 0.0
2018-Aug-07 23:22N 54°11' E 012°07'0 0.0
2018-Aug-07 22:34N 54°11' E 012°07'0 0.0
2018-Aug-07 22:28N 54°11' E 012°07'0 0.0
2018-Aug-07 21:49N 54°11' E 012°07'0 0.0
2018-Aug-07 21:28N 54°11' E 012°07'0 0.0
2018-Aug-07 20:46N 54°11' E 012°07'0 0.0
2018-Aug-07 20:28N 54°11' E 012°07'0 0.0
2018-Aug-07 19:13N 54°11' E 012°07'0 0.0
2018-Aug-07 18:43N 54°11' E 012°07'0 0.0
2018-Aug-07 18:25N 54°11' E 012°07'0 0.0
2018-Aug-07 17:58N 54°11' E 012°07'0 0.0
2018-Aug-07 17:28N 54°11' E 012°07'0 0.0
2018-Aug-07 16:12N 54°11' E 012°07'0 0.0
2018-Aug-07 15:45N 54°11' E 012°07'0 0.0
2018-Aug-07 14:46N 54°11' E 012°07'0 0.2
2018-Aug-07 14:30N 54°11' E 012°07'1 2.6
2018-Aug-07 14:01N 54°12' E 012°05'1 2.3
2018-Aug-07 13:30N 54°13' E 012°04'2 4.1
2018-Aug-07 13:00N 54°15' E 012°02'1 2.2
2018-Aug-07 12:30N 54°16' E 012°00'2 3.2
2018-Aug-07 11:59N 54°15' E 011°58'2 3.7
2018-Aug-07 11:29N 54°13' E 011°56'8 4.1
2018-Aug-07 09:30N 54°10' E 011°43'2 4.7
2018-Aug-07 08:59N 54°09' E 011°39'2 4.5
2018-Aug-07 08:30N 54°07' E 011°37'0 0.4
2018-Aug-07 07:58N 54°07' E 011°37'0 0.0
2018-Aug-07 07:28N 54°07' E 011°37'0 0.0
2018-Aug-07 06:55N 54°07' E 011°37'0 0.0
2018-Aug-07 06:28N 54°07' E 011°37'0 0.0
2018-Aug-07 05:58N 54°07' E 011°37'0 0.0
2018-Aug-07 05:16N 54°07' E 011°37'0 0.0
2018-Aug-07 04:58N 54°07' E 011°37'0 0.0
2018-Aug-07 04:28N 54°07' E 011°37'0 0.0
2018-Aug-07 03:58N 54°07' E 011°37'0 0.0
2018-Aug-07 03:28N 54°07' E 011°37'0 0.0
2018-Aug-07 00:49N 54°07' E 011°37'0 0.0
2018-Aug-07 00:16N 54°07' E 011°37'0 0.0
2018-Aug-06 22:40N 54°07' E 011°37'0 0.0
2018-Aug-06 22:24N 54°07' E 011°37'0 0.0
2018-Aug-06 22:01N 54°07' E 011°37'0 0.0
2018-Aug-06 21:27N 54°07' E 011°37'0 0.0
2018-Aug-06 20:03N 54°07' E 011°37'0 0.0
2018-Aug-06 19:48N 54°07' E 011°37'0 0.0
2018-Aug-06 19:18N 54°07' E 011°37'0 0.0
2018-Aug-06 18:54N 54°07' E 011°37'0 0.0
2018-Aug-06 18:09N 54°07' E 011°37'0 0.0
2018-Aug-06 17:57N 54°07' E 011°37'0 0.0
2018-Aug-06 17:30N 54°07' E 011°37'0 0.0
2018-Aug-06 17:00N 54°07' E 011°37'0 0.0
2018-Aug-06 16:30N 54°07' E 011°37'0 0.0
2018-Aug-06 16:00N 54°07' E 011°37'0 0.0
2018-Aug-06 15:30N 54°07' E 011°37'0 0.0
2018-Aug-06 14:57N 54°07' E 011°37'0 0.0
2018-Aug-06 14:30N 54°07' E 011°37'0 0.0
2018-Aug-06 13:56N 54°07' E 011°37'3 5.4
2018-Aug-06 13:19N 54°06' E 011°31'2 6.5
2018-Aug-06 13:00N 54°04' E 011°29'2 4.2
2018-Aug-06 12:30N 54°03' E 011°27'0 0.4
2018-Aug-06 12:00N 54°03' E 011°27'0 0.4
2018-Aug-06 11:30N 54°03' E 011°26'0 0.4
2018-Aug-06 10:58N 54°03' E 011°26'0 0.2
2018-Aug-06 10:30N 54°03' E 011°26'0 0.8
2018-Aug-06 10:00N 54°03' E 011°26'0 0.9
2018-Aug-06 09:30N 54°02' E 011°25'1 1.4
2018-Aug-06 09:00N 54°02' E 011°24'3 5.9
2018-Aug-06 08:31N 53°60' E 011°21'3 6.3
2018-Aug-06 08:01N 53°57' E 011°24'3 6.5
2018-Aug-06 07:30N 53°54' E 011°27'1 1.5
2018-Aug-06 07:00N 53°54' E 011°27'0 0.0
2018-Aug-06 06:30N 53°54' E 011°27'0 0.0
2018-Aug-06 06:00N 53°54' E 011°27'0 0.0
2018-Aug-06 05:30N 53°54' E 011°27'0 0.0
2018-Aug-06 05:00N 53°54' E 011°27'0 0.0
2018-Aug-06 04:30N 53°54' E 011°27'0 0.0
2018-Aug-06 04:00N 53°54' E 011°27'0 0.0
2018-Aug-06 03:28N 53°54' E 011°27'0 0.0
2018-Aug-06 03:00N 53°54' E 011°27'0 0.0
2018-Aug-06 02:30N 53°54' E 011°27'0 0.0
2018-Aug-06 02:00N 53°54' E 011°27'0 0.0
2018-Aug-06 01:30N 53°54' E 011°27'28 2.4
2018-Aug-05 14:00N 54°22' E 011°19'4 7.9
2018-Aug-05 13:30N 54°25' E 011°19'4 8.6
2018-Aug-05 13:00N 54°30' E 011°17'5 9.1
2018-Aug-05 12:30N 54°34' E 011°14'4 9.0
2018-Aug-05 12:00N 54°38' E 011°10'4 7.3
2018-Aug-05 11:29N 54°38' E 011°03'4 8.6
2018-Aug-05 11:00N 54°37' E 010°56'4 7.6
2018-Aug-05 10:30N 54°36' E 010°50'3 6.0
2018-Aug-05 10:00N 54°37' E 010°45'4 7.6
2018-Aug-05 09:30N 54°40' E 010°41'3 6.7
2018-Aug-05 09:00N 54°43' E 010°38'4 7.3
2018-Aug-05 08:30N 54°46' E 010°36'3 6.9
2018-Aug-05 08:00N 54°49' E 010°33'2 4.9
2018-Aug-05 07:30N 54°51' E 010°32'0 0.3
2018-Aug-05 06:55N 54°51' E 010°31'0 0.0
2018-Aug-05 05:37N 54°51' E 010°31'0 0.0
2018-Aug-05 05:30N 54°51' E 010°31'0 0.0
2018-Aug-05 04:56N 54°51' E 010°31'0 0.0
2018-Aug-05 03:47N 54°51' E 010°31'0 0.0
2018-Aug-05 03:28N 54°51' E 010°31'0 0.0
2018-Aug-05 02:37N 54°51' E 010°31'0 0.0
2018-Aug-05 02:22N 54°51' E 010°31'0 0.0
2018-Aug-05 01:54N 54°51' E 010°31'0 0.0
2018-Aug-05 01:29N 54°51' E 010°31'0 0.0
2018-Aug-05 00:55N 54°51' E 010°31'0 0.0
2018-Aug-05 00:21N 54°51' E 010°31'0 0.0
2018-Aug-04 23:59N 54°51' E 010°31'0 0.0
2018-Aug-04 23:30N 54°51' E 010°31'0 0.0
2018-Aug-04 22:58N 54°51' E 010°31'0 0.0
2018-Aug-04 20:16N 54°51' E 010°31'0 0.0
2018-Aug-04 19:53N 54°51' E 010°31'0 0.0
2018-Aug-04 19:26N 54°51' E 010°31'0 0.0
2018-Aug-04 18:49N 54°51' E 010°31'0 0.0
2018-Aug-04 16:15N 54°51' E 010°31'0 0.0
2018-Aug-04 15:57N 54°51' E 010°31'0 0.0
2018-Aug-04 14:48N 54°51' E 010°31'1 2.0
2018-Aug-04 14:30N 54°51' E 010°32'2 4.0
2018-Aug-04 14:00N 54°49' E 010°33'2 4.2
2018-Aug-04 13:29N 54°47' E 010°31'2 4.2
2018-Aug-04 12:59N 54°45' E 010°31'2 3.7
2018-Aug-04 12:30N 54°43' E 010°30'3 5.0
2018-Aug-04 12:00N 54°41' E 010°28'3 5.9
2018-Aug-04 11:30N 54°39' E 010°25'3 6.1
2018-Aug-04 11:00N 54°36' E 010°22'3 6.0
2018-Aug-04 10:29N 54°33' E 010°20'5 4.3
2018-Aug-04 09:13N 54°29' E 010°14'2 6.1
2018-Aug-04 08:53N 54°27' E 010°13'  

Dump ship's entire track history